createdAt,value
2018-09-04T13:49:25.979Z,8.60
2018-09-04T13:51:55.193Z,8.73
2018-09-04T13:54:23.834Z,8.70
2018-09-04T13:56:52.453Z,8.70
2018-09-04T13:59:20.932Z,9.05
2018-09-04T14:01:50.153Z,8.83
2018-09-04T14:04:19.204Z,8.68
2018-09-04T14:06:47.557Z,9.18
2018-09-04T14:09:16.115Z,9.53
2018-09-04T14:11:44.527Z,8.13
2018-09-04T14:14:13.476Z,8.70
2018-09-04T14:16:43.542Z,8.60
2018-09-04T14:19:11.016Z,8.53
2018-09-04T14:21:39.432Z,8.45
2018-09-04T14:24:08.653Z,9.20
2018-09-04T14:26:37.317Z,8.50
2018-09-04T14:29:07.167Z,8.18
2018-09-04T14:31:34.275Z,7.95
2018-09-04T14:34:02.911Z,8.05
2018-09-04T14:36:31.440Z,7.78
2018-09-04T14:38:59.781Z,7.60
2018-09-04T14:41:28.957Z,10.48
2018-09-04T14:43:57.362Z,9.53
2018-09-04T14:46:25.796Z,8.18
2018-09-04T14:48:55.225Z,8.68
2018-09-04T14:51:24.360Z,8.18
2018-09-04T14:53:53.400Z,8.55
2018-09-04T14:56:21.980Z,9.38
2018-09-04T14:58:50.949Z,8.43
2018-09-04T15:01:19.457Z,7.90
2018-09-04T15:03:47.945Z,7.70
2018-09-04T15:06:16.791Z,8.08
2018-09-04T15:08:45.389Z,7.85
2018-09-04T15:11:14.048Z,7.70
2018-09-04T15:13:42.557Z,7.83
2018-09-04T15:16:11.084Z,7.80
2018-09-04T15:18:39.737Z,7.80
2018-09-04T15:21:08.563Z,7.05
2018-09-04T15:23:36.957Z,7.12
2018-09-04T15:26:05.733Z,7.50
2018-09-04T15:28:34.545Z,7.50
2018-09-04T15:31:02.963Z,7.67
2018-09-04T15:33:32.238Z,7.92
2018-09-04T15:36:01.708Z,7.55
2018-09-04T15:38:30.218Z,7.83
2018-09-04T15:40:59.365Z,7.47
2018-09-04T15:43:27.823Z,6.85
2018-09-04T15:45:56.421Z,7.33
2018-09-04T15:48:24.852Z,7.20
2018-09-04T15:50:53.328Z,6.42
2018-09-04T15:53:21.785Z,6.95
2018-09-04T15:55:50.420Z,7.10
2018-09-04T15:58:18.809Z,7.60
2018-09-04T16:00:47.328Z,6.75
2018-09-04T16:03:15.733Z,7.20
2018-09-04T16:05:44.199Z,7.00
2018-09-04T16:08:12.564Z,6.40
2018-09-04T16:10:41.040Z,6.97
2018-09-04T16:13:09.632Z,6.75
2018-09-04T16:15:38.303Z,6.97
2018-09-04T16:18:06.882Z,6.80
2018-09-04T16:20:35.296Z,7.08
2018-09-04T16:23:04.070Z,8.80
2018-09-04T16:25:32.780Z,7.35
2018-09-04T16:28:01.159Z,7.40
2018-09-04T16:30:29.573Z,6.80
2018-09-04T16:32:58.067Z,10.40
2018-09-04T16:35:26.609Z,7.80
2018-09-04T16:37:55.644Z,8.40
2018-09-04T16:40:24.176Z,7.62
2018-09-04T16:42:52.793Z,7.00
2018-09-04T16:45:21.560Z,7.40
2018-09-04T16:47:50.024Z,7.15
2018-09-04T16:50:18.788Z,8.15
2018-09-04T16:52:47.282Z,7.62
2018-09-04T16:55:15.873Z,6.70
2018-09-04T16:57:44.546Z,6.72
2018-09-04T17:00:13.406Z,7.75
2018-09-04T17:02:42.570Z,7.20
2018-09-04T17:05:11.255Z,6.78
2018-09-04T17:07:40.141Z,7.17
2018-09-04T17:10:08.709Z,7.67
2018-09-04T17:12:37.419Z,7.30
2018-09-04T17:15:06.423Z,7.12
2018-09-04T17:17:35.182Z,7.85
2018-09-04T17:20:04.234Z,7.67
2018-09-04T17:22:33.223Z,6.35
2018-09-04T17:25:01.849Z,7.12
2018-09-04T17:27:37.776Z,7.15
2018-09-04T17:30:06.925Z,7.12
2018-09-04T17:32:35.669Z,7.22
2018-09-04T17:35:04.289Z,7.00
2018-09-04T17:37:32.686Z,7.10
2018-09-04T17:40:01.115Z,10.53
2018-09-04T17:42:29.762Z,7.97
2018-09-04T17:44:58.292Z,7.42
2018-09-04T17:47:27.548Z,6.97
2018-09-04T17:49:56.161Z,6.78
2018-09-04T17:52:24.769Z,7.50
2018-09-04T17:54:53.394Z,7.05
2018-09-04T17:57:21.899Z,7.30
2018-09-04T17:59:50.303Z,7.05
2018-09-04T18:02:18.701Z,7.33
2018-09-04T18:04:47.112Z,7.50
2018-09-04T18:07:16.216Z,7.47
2018-09-04T18:09:44.624Z,7.72
2018-09-04T18:12:13.066Z,7.80
2018-09-04T18:14:42.229Z,6.78
2018-09-04T18:17:10.753Z,7.58
2018-09-04T18:19:39.181Z,8.70
2018-09-04T18:22:07.625Z,8.75
2018-09-04T18:24:36.276Z,7.08
2018-09-04T18:27:04.788Z,6.95
2018-09-04T18:29:33.316Z,7.10
2018-09-04T18:32:02.144Z,6.70
2018-09-04T18:34:30.611Z,7.42
2018-09-04T18:36:59.436Z,6.83
2018-09-04T18:39:27.892Z,6.87
2018-09-04T18:41:56.520Z,6.95
2018-09-04T18:44:25.269Z,6.97
2018-09-04T18:46:53.901Z,7.05
2018-09-04T18:49:22.591Z,7.00
2018-09-04T18:51:51.226Z,7.22
2018-09-04T18:54:20.523Z,7.35
2018-09-04T18:56:48.948Z,7.65
2018-09-04T18:59:17.519Z,7.72
2018-09-04T19:01:46.244Z,7.87
2018-09-04T19:04:14.859Z,7.30
2018-09-04T19:06:43.329Z,6.83
2018-09-04T19:09:11.718Z,7.47
2018-09-04T19:11:40.209Z,7.08
2018-09-04T19:14:08.810Z,7.60
2018-09-04T19:16:37.334Z,7.53
2018-09-04T19:19:06.926Z,7.60
2018-09-04T19:21:35.399Z,7.47
2018-09-04T19:24:04.021Z,7.37
2018-09-04T19:26:32.630Z,7.30
2018-09-04T19:29:01.625Z,6.92
2018-09-04T19:31:30.849Z,7.17
2018-09-04T19:33:59.553Z,7.08
2018-09-04T19:36:28.374Z,7.05
2018-09-04T19:38:56.916Z,7.50
2018-09-04T19:41:25.436Z,7.17
2018-09-04T19:43:53.900Z,8.05
2018-09-04T19:46:22.422Z,7.78
2018-09-04T19:48:50.903Z,8.60
2018-09-04T19:51:20.693Z,7.55
2018-09-04T19:53:49.382Z,7.00
2018-09-04T19:56:18.093Z,7.10
2018-09-04T19:58:46.645Z,6.08
2018-09-04T20:01:15.144Z,6.03
2018-09-04T20:03:43.618Z,6.25
2018-09-04T20:06:12.583Z,6.05
2018-09-04T20:08:41.091Z,5.75
2018-09-04T20:11:09.930Z,5.67
2018-09-04T20:13:38.328Z,5.37
2018-09-04T20:16:06.840Z,5.03
2018-09-04T20:18:35.412Z,5.25
2018-09-04T20:21:04.940Z,5.05
2018-09-04T20:23:33.422Z,5.12
2018-09-04T20:26:01.838Z,4.92
2018-09-04T20:28:30.513Z,5.20
2018-09-04T20:31:26.819Z,5.10
2018-09-04T20:33:55.545Z,5.05
2018-09-04T20:36:24.090Z,4.92
2018-09-04T20:38:52.552Z,4.55
2018-09-04T20:41:21.262Z,4.90
2018-09-04T20:43:49.883Z,4.60
2018-09-04T20:46:18.613Z,5.20
2018-09-04T20:48:47.046Z,5.00
2018-09-04T20:51:15.516Z,4.80
2018-09-04T20:53:44.147Z,4.85
2018-09-04T20:56:12.668Z,4.70
2018-09-04T20:58:52.362Z,5.03
2018-09-04T21:01:31.964Z,4.60
2018-09-04T21:04:11.829Z,4.67
2018-09-04T21:06:47.428Z,4.80
2018-09-04T21:09:25.989Z,4.37
2018-09-04T21:11:55.258Z,4.55
2018-09-04T21:14:23.864Z,4.58
2018-09-04T21:16:53.145Z,4.08
2018-09-04T21:19:21.622Z,5.08
2018-09-04T21:21:50.221Z,4.70
2018-09-04T21:24:18.620Z,4.83
2018-09-04T21:26:47.659Z,4.30
2018-09-04T21:29:16.069Z,5.08
2018-09-04T21:31:45.049Z,4.53
2018-09-04T21:34:14.273Z,3.83
2018-09-04T21:36:43.362Z,4.10
2018-09-04T21:39:12.103Z,4.42
2018-09-04T21:41:40.611Z,4.47
2018-09-04T21:44:09.024Z,4.50
2018-09-04T21:46:37.581Z,3.77
2018-09-04T21:49:06.069Z,4.17
2018-09-04T21:51:34.752Z,4.10
2018-09-04T21:54:03.360Z,4.12
2018-09-04T21:56:31.736Z,3.98
2018-09-04T21:59:00.858Z,4.30
2018-09-04T22:01:29.250Z,4.12
2018-09-04T22:03:57.624Z,4.08
2018-09-04T22:06:26.036Z,4.15
2018-09-04T22:08:54.545Z,4.10
2018-09-04T22:11:23.108Z,4.17
2018-09-04T22:13:51.486Z,3.92
2018-09-04T22:16:20.648Z,4.00
2018-09-04T22:18:49.184Z,4.10
2018-09-04T22:21:17.872Z,4.00
2018-09-04T22:23:46.349Z,3.80
2018-09-04T22:26:14.739Z,4.03
2018-09-04T22:28:43.280Z,4.30
2018-09-04T22:31:11.698Z,4.30
2018-09-04T22:33:44.551Z,4.10
2018-09-04T22:36:13.814Z,4.03
2018-09-04T22:38:42.229Z,4.12
2018-09-04T22:41:10.752Z,4.20
2018-09-04T22:43:39.453Z,4.35
2018-09-04T22:46:08.208Z,4.03
2018-09-04T22:48:37.541Z,4.12
2018-09-04T22:51:11.825Z,4.10
2018-09-04T22:53:40.585Z,4.03
2018-09-04T22:56:09.704Z,4.35
2018-09-04T22:58:38.406Z,4.58
2018-09-04T23:01:07.076Z,4.25
2018-09-04T23:03:35.560Z,4.47
2018-09-04T23:06:03.968Z,4.40
2018-09-04T23:08:32.365Z,4.30
2018-09-04T23:11:00.732Z,4.33
2018-09-04T23:13:29.516Z,4.15
2018-09-04T23:15:57.980Z,4.47
2018-09-04T23:18:26.701Z,4.03
2018-09-04T23:20:55.073Z,4.33
2018-09-04T23:23:23.492Z,3.72
2018-09-04T23:25:52.611Z,4.62
2018-09-04T23:28:21.084Z,4.40
2018-09-04T23:30:49.478Z,4.03
2018-09-04T23:33:18.808Z,4.25
2018-09-04T23:35:47.260Z,4.65
2018-09-04T23:38:15.675Z,3.80
2018-09-04T23:40:44.763Z,4.60
2018-09-04T23:43:13.212Z,4.70
2018-09-04T23:45:41.709Z,4.55
2018-09-04T23:48:10.151Z,4.08
2018-09-04T23:50:38.652Z,4.08
2018-09-04T23:53:07.181Z,4.70
2018-09-04T23:55:35.837Z,4.58
2018-09-04T23:58:04.212Z,4.62
